M I D A S
Marine Information and Data Acquisition System
Tripno 2044 of the Zeeleeuw from 2011-02-21 07:16:07 to 2011-02-21 17:23:27
Back to CruiseResearch ActivitiesStationsMapUnderway DataData graphs

EquipmentUnitsComment
TimeDGPSUTC
LatitudeDGPSDM.mWGS84
LongitudeDGPSDM.mWGS84
TemperatureSBE03/SBE38deg celciusITS90
ConductivitySBE21S/mITS90
SalinitySBE21 Practical Salinity Units
ChlorophylAChelsea fluorimeterg/lCalibrated in Aceton
Missing or incorrect values are displayed as -999
Sea surface data collected by the RV Zeeleeuw from 2011-02-21 07:03:20 to 2011-02-21 18:21:32
Time Latitude Longitude Temperature Conductivity Salinity ChlorophylA
2011-02-21 07:04:25 51°13.663 2°55.959 12.9953 0.01742 0.087619 0.462042
2011-02-21 07:05:25 51°13.662 2°55.959 13.0051 0.01742 0.087631 0.496866
2011-02-21 07:06:25 51°13.662 2°55.959 13.0223 0.01742 0.087643 0.462042
2011-02-21 07:07:25 51°13.662 2°55.96 13.0071 0.01742 0.087657 0.462042
2011-02-21 07:08:25 51°13.662 2°55.96 13.0117 0.01742 0.087675 0.462042
2011-02-21 07:09:26 51°13.662 2°55.961 13.0161 0.01742 0.08769 0.462042
2011-02-21 07:10:25 51°13.662 2°55.96 12.9969 0.017316 0.087209 0.462042
2011-02-21 07:11:26 51°13.662 2°55.96 13.0078 0.017316 0.087222 0.462042
2011-02-21 07:12:25 51°13.661 2°55.96 13.0289 0.017316 0.087238 0.462042
2011-02-21 07:13:24 51°13.662 2°55.959 13.0387 0.017316 0.087253 0.427218
2011-02-21 07:14:22 51°13.662 2°55.959 13.0317 0.017316 0.087268 0.462042
2011-02-21 07:15:23 51°13.661 2°55.96 13.0351 0.017316 0.087286 0.462042
2011-02-21 07:16:25 51°13.661 2°55.959 13.0226 0.017316 0.087301 0.462042
2011-02-21 07:17:25 51°13.661 2°55.96 13.0612 0.017316 0.087319 0.462042
2011-02-21 07:18:25 51°13.664 2°55.944 12.9658 0.017316 0.087335 0.462042
2011-02-21 07:19:26 51°13.684 2°55.851 13.0455 0.017316 0.087353 0.496866
2011-02-21 07:20:26 51°13.69 2°55.755 13.0102 0.017316 0.087369 0.427218
2011-02-21 07:21:23 51°13.693 2°55.737 13.0517 0.017316 0.087385 0.496866
2011-02-21 07:22:26 51°13.723 2°55.739 13.0715 0.017316 0.087401 0.462042
2011-02-21 07:23:24 51°13.782 2°55.675 12.8087 0.017316 0.087419 0.496866
2011-02-21 07:24:23 51°13.895 2°55.579 12.7766 0.017316 0.087438 0.462042
2011-02-21 07:25:25 51°14.047 2°55.47 12.8272 0.017316 0.087454 0.496866
2011-02-21 07:26:25 51°14.208 2°55.347 12.8788 0.017316 0.087474 0.496866
2011-02-21 07:27:25 51°14.372 2°55.182 12.7855 0.017316 0.087491 0.462042
2011-02-21 07:28:22 51°14.535 2°55 12.746 0.017316 0.087512 0.462042
2011-02-21 07:29:22 51°14.703 2°54.767 12.6101 0.017316 0.087529 0.462042
2011-02-21 07:30:22 51°14.885 2°54.572 12.4382 0.017316 0.087548 0.462042
2011-02-21 07:31:22 51°15.077 2°54.423 12.493 0.017316 0.087568 0.496866
2011-02-21 07:32:22 51°15.275 2°54.343 12.3874 0.017316 0.087582 0.462042
2011-02-21 07:33:22 51°15.479 2°54.307 12.3994 0.017212 0.087108 0.496866
2011-02-21 07:34:22 51°15.687 2°54.24 12.4191 0.017316 0.087635 0.462042
2011-02-21 07:35:22 51°15.898 2°54.19 12.3817 0.017316 0.087671 0.496866
2011-02-21 07:36:22 51°16.109 2°54.147 12.3925 0.017316 0.087705 0.462042
2011-02-21 07:37:22 51°16.29 2°54.147 12.3815 0.017212 0.087245 0.496866
2011-02-21 07:38:22 51°16.305 2°54.244 12.4594 0.017212 0.087286 0.462042
2011-02-21 07:39:22 51°16.274 2°54.26 12.4625 0.017212 0.087334 0.496866
2011-02-21 07:40:22 51°16.264 2°54.226 12.4586 0.017212 0.087374 0.462042
2011-02-21 07:41:22 51°16.253 2°54.188 12.482 0.017212 0.087419 0.496866
2011-02-21 07:42:22 51°16.242 2°54.146 12.4922 0.017212 0.087463 0.427218
2011-02-21 07:43:22 51°16.232 2°54.104 12.4671 0.017212 0.087516 0.496866
2011-02-21 07:44:22 51°16.221 2°54.062 12.4712 0.017212 0.087575 0.462042
2011-02-21 07:45:22 51°16.211 2°54.022 12.5172 0.017212 0.087629 0.496866
2011-02-21 07:46:22 51°16.2 2°53.982 12.4894 0.017212 0.087681 0.496866
2011-02-21 07:47:22 51°16.189 2°53.941 12.5128 0.017212 0.087716 0.462042
2011-02-21 07:48:22 51°16.166 2°53.892 12.463 0.017108 0.087244 0.462042
2011-02-21 07:49:22 51°16.145 2°53.771 12.6859 0.017212 0.087773 0.566514
2011-02-21 07:50:22 51°16.199 2°53.694 12.6844 0.017108 0.087294 0.462042
2011-02-21 07:51:22 51°16.233 2°53.754 12.6914 0.017108 0.087319 0.462042
2011-02-21 07:52:22 51°16.211 2°53.906 12.7043 0.017108 0.087351 0.427218
2011-02-21 07:53:22 51°16.219 2°54.088 12.7434 0.017108 0.087371 0.462042
2011-02-21 07:54:22 51°16.229 2°54.265 12.7905 0.017108 0.087391 0.462042
2011-02-21 07:55:22 51°16.223 2°54.357 12.8033 0.017108 0.087413 0.462042
2011-02-21 07:56:22 51°16.201 2°54.377 12.8209 0.017108 0.087428 0.462042
2011-02-21 07:57:22 51°16.187 2°54.383 12.8554 0.017108 0.087444 0.462042
2011-02-21 07:58:22 51°16.182 2°54.379 6.189 0.017108 0.0875 0.740634
2011-02-21 07:59:22 51°16.181 2°54.366 6.058 0.017108 0.087536 1.262995
2011-02-21 08:00:22 51°16.183 2°54.347 6.0246 4.167987 38.400308 0.496866
2011-02-21 08:01:22 51°16.185 2°54.324 6.0141 3.346573 33.501929 0.462042
2011-02-21 08:02:22 51°16.188 2°54.299 6.0129 3.314005 33.228288 0.392394
2011-02-21 08:03:22 51°16.19 2°54.273 6.0083 3.3139 33.248105 0.35757
2011-02-21 08:04:22 51°16.192 2°54.25 6.0048 3.322227 33.363541 0.427218
2011-02-21 08:05:22 51°16.195 2°54.227 6.0066 3.320224 33.355573 0.392394
2011-02-21 08:06:22 51°16.197 2°54.204 6.0014 3.319171 33.356487 0.253098
2011-02-21 08:07:22 51°16.199 2°54.179 6.0026 3.317484 33.346129 0.322746
2011-02-21 08:08:22 51°16.201 2°54.154 6.0007 3.317274 33.351378 0.253098
2011-02-21 08:09:22 51°16.204 2°54.127 5.9991 3.316957 33.352919 0.322746
2011-02-21 08:10:22 51°16.207 2°54.101 5.9982 3.316747 33.357327 0.287922
2011-02-21 08:11:22 51°16.209 2°54.076 5.9975 3.315904 33.35299 0.287922
2011-02-21 08:12:22 51°16.212 2°54.051 5.995 3.315271 33.347625 0.322746
2011-02-21 08:13:22 51°16.214 2°54.025 5.9926 3.315166 33.350674 0.287922
2011-02-21 08:14:22 51°16.217 2°54 5.9948 3.315377 33.358944 0.287922
2011-02-21 08:15:22 51°16.23 2°54.002 5.9942 3.314533 33.346998 0.287922
2011-02-21 08:16:22 51°16.237 2°54.001 5.9941 3.315166 33.359974 0.287922
2011-02-21 08:17:22 51°16.235 2°53.97 5.9943 3.314323 33.350563 0.462042
2011-02-21 08:18:22 51°16.234 2°53.937 5.9896 3.314744 33.356114 0.427218
2011-02-21 08:19:22 51°16.244 2°53.917 5.9905 3.315798 33.370416 0.322746
2011-02-21 08:20:22 51°16.265 2°53.91 5.9904 3.315588 33.368063 0.287922
2011-02-21 08:21:22 51°16.305 2°53.898 5.9967 3.31622 33.377661 0.392394
2011-02-21 08:22:22 51°16.379 2°53.778 5.9864 3.31485 33.362364 0.287922
2011-02-21 08:23:22 51°16.509 2°53.541 5.9883 3.31622 33.384432 0.322746
2011-02-21 08:24:22 51°16.661 2°53.283 6.0053 3.318328 33.404583 0.322746
2011-02-21 08:25:22 51°16.824 2°53.05 6.005 3.320752 33.418943 0.253098
2011-02-21 08:26:22 51°16.965 2°52.82 6.018 3.323176 33.44855 0.322746
2011-02-21 08:27:22 51°17.136 2°52.632 6.0262 3.326654 33.471268 0.322746
2011-02-21 08:28:22 51°17.307 2°52.435 6.0387 3.330659 33.50664 0.322746
2011-02-21 08:29:22 51°17.485 2°52.245 6.0455 3.335192 33.55043 0.253098
2011-02-21 08:30:22 51°17.666 2°52.05 6.0502 3.338248 33.576044 0.35757
2011-02-21 08:31:22 51°17.847 2°51.873 6.0496 3.34141 33.608782 0.322746
2011-02-21 08:32:22 51°18.031 2°51.698 6.0505 3.343202 33.627929 0.287922
2011-02-21 08:33:22 51°18.197 2°51.466 6.0493 3.345416 33.656895 0.35757
2011-02-21 08:34:22 51°18.356 2°51.214 6.0396 3.346786 33.672192 0.392394
2011-02-21 08:35:22 51°18.499 2°50.967 6.0284 3.34531 33.665094 0.287922
2011-02-21 08:36:22 51°18.58 2°50.959 6.0189 3.344151 33.660673 0.253098
2011-02-21 08:37:22 51°18.587 2°51.062 6.0184 3.344046 33.668878 0.287922
2011-02-21 08:38:22 51°18.552 2°51.102 6.0222 3.343413 33.665225 0.218274
2011-02-21 08:39:22 51°18.544 2°51.072 6.0184 3.341938 33.64618 0.35757
2011-02-21 08:40:23 51°18.536 2°51.04 6.0178 3.339303 33.620153 0.253098
2011-02-21 08:41:22 51°18.526 2°51.006 6.0169 3.3412 33.643906 0.287922
2011-02-21 08:42:22 51°18.514 2°50.971 6.0204 3.342359 33.656861 0.287922
2011-02-21 08:43:22 51°18.493 2°50.925 6.019 3.342781 33.653895 0.287922
2011-02-21 08:44:22 51°18.469 2°50.881 6.0171 3.341411 33.645409 0.35757
2011-02-21 08:45:22 51°18.419 2°50.868 6.0184 3.341305 33.64679 0.35757
2011-02-21 08:46:22 51°18.391 2°50.914 6.0226 3.340884 33.642079 0.287922
2011-02-21 08:47:22 51°18.377 2°50.94 6.0228 3.342465 33.653773 0.287922
2011-02-21 08:48:22 51°18.37 2°50.954 6.0211 3.342992 33.658808 0.287922
2011-02-21 08:49:22 51°18.379 2°50.998 6.0235 3.342992 33.659661 0.462042
2011-02-21 08:50:22 51°18.403 2°51.036 6.0236 3.343203 33.660311 0.287922
2011-02-21 08:51:22 51°18.421 2°51.048 6.0229 3.343097 33.659986 0.322746
2011-02-21 08:52:22 51°18.427 2°51.057 6.021 3.343308 33.663194 0.287922
2011-02-21 08:53:22 51°18.425 2°51.064 6.0218 3.342676 33.657835 0.218274
2011-02-21 08:54:22 51°18.42 2°51.066 6.0217 3.342992 33.659661 0.253098
2011-02-21 08:55:22 51°18.415 2°51.067 6.0221 3.343308 33.662341 0.287922
2011-02-21 08:56:22 51°18.409 2°51.067 6.0233 3.343097 33.661692 0.287922
2011-02-21 08:57:22 51°18.404 2°51.065 6.0219 3.342992 33.658808 0.287922
2011-02-21 08:58:22 51°18.411 2°51.115 6.0235 3.342992 33.657955 0.253098
2011-02-21 08:59:22 51°18.453 2°51.328 6.028 3.342886 33.656778 0.287922
2011-02-21 09:00:22 51°18.507 2°51.622 6.031 3.342781 33.650484 0.287922
2011-02-21 09:01:22 51°18.572 2°51.913 6.0347 3.34257 33.645572 0.322746
2011-02-21 09:02:22 51°18.637 2°52.206 6.0347 3.344362 33.661322 0.287922
2011-02-21 09:03:22 51°18.703 2°52.499 6.0323 3.342886 33.647399 0.35757
2011-02-21 09:04:22 51°18.768 2°52.792 6.0269 3.342359 33.641513 0.287922
2011-02-21 09:05:22 51°18.832 2°53.085 6.0252 3.340884 33.630145 0.287922
2011-02-21 09:06:22 51°18.895 2°53.378 6.0201 3.337405 33.593852 0.287922
2011-02-21 09:07:22 51°18.96 2°53.669 6.0149 3.336984 33.594251 0.462042
2011-02-21 09:08:22 51°19.026 2°53.955 5.9036 3.334454 33.571953 0.496866
2011-02-21 09:09:22 51°19.081 2°54.242 5.8918 3.286815 33.142876 0.392394
2011-02-21 09:10:22 51°19.139 2°54.529 5.839 3.278911 33.072177 0.35757
2011-02-21 09:11:22 51°19.196 2°54.815 5.804 3.249613 32.799016 0.601338
2011-02-21 09:12:22 51°19.25 2°55.102 5.7533 3.227798 32.586685 0.462042
2011-02-21 09:13:22 51°19.307 2°55.386 5.7213 3.201875 32.34393 0.496866
2011-02-21 09:14:22 51°19.362 2°55.668 5.6812 3.183329 32.167754 0.566514
2011-02-21 09:15:22 51°19.417 2°55.949 5.631 3.164467 31.991162 0.775459
2011-02-21 09:16:22 51°19.47 2°56.226 5.5946 3.133699 31.694144 0.670986
2011-02-21 09:17:22 51°19.524 2°56.499 5.561 3.113786 31.503689 0.670986
2011-02-21 09:18:22 51°19.578 2°56.769 5.5199 3.090501 31.284168 0.775459
2011-02-21 09:19:22 51°19.63 2°57.038 5.522 3.072696 31.108108 0.775459
2011-02-21 09:20:22 51°19.683 2°57.305 5.4998 3.062476 30.999322 0.845107
2011-02-21 09:21:22 51°19.738 2°57.571 5.4811 3.045831 30.831366 0.740634
2011-02-21 09:22:22 51°19.792 2°57.835 5.4648 3.0275 30.641354 0.740634
2011-02-21 09:23:22 51°19.846 2°58.1 5.461 3.009486 30.459585 0.949579
2011-02-21 09:24:22 51°19.902 2°58.365 5.4554 3.006536 30.425822 1.054051
2011-02-21 09:25:22 51°19.96 2°58.632 5.4553 3.001375 30.37595 0.70581
2011-02-21 09:26:22 51°20.016 2°58.901 5.465 2.999795 30.354373 1.123699
2011-02-21 09:27:22 51°20.071 2°59.173 5.4539 3.00306 30.381481 0.949579
2011-02-21 09:28:22 51°20.127 2°59.443 5.4377 2.989892 30.246059 1.019227
2011-02-21 09:29:22 51°20.188 2°59.707 5.4301 2.97367 30.081163 1.47194
2011-02-21 09:30:22 51°20.242 2°59.973 5.4224 2.965243 29.991692 1.193347
2011-02-21 09:31:22 51°20.302 3°0.234 5.4281 2.955342 29.884227 1.332643
2011-02-21 09:32:22 51°20.354 3°0.5 5.4301 2.954078 29.866265 1.262995
2011-02-21 09:33:22 51°20.411 3°0.763 5.4281 2.953025 29.854509 1.297819
2011-02-21 09:34:22 51°20.472 3°1.029 5.4482 2.953235 29.859171 1.402292
2011-02-21 09:35:22 51°20.523 3°1.306 5.4463 2.958712 29.901804 1.541588
2011-02-21 09:36:22 51°20.575 3°1.585 5.4367 2.957238 29.889203 1.262995
2011-02-21 09:37:22 51°20.621 3°1.864 5.4512 2.955763 29.879682 1.193347
2011-02-21 09:38:22 51°20.675 3°2.139 5.4425 2.960503 29.920242 1.262995
2011-02-21 09:39:22 51°20.723 3°2.407 5.4323 2.959766 29.920498 1.054051
2011-02-21 09:40:22 51°20.729 3°2.541 5.4063 2.954921 29.87567 1.123699
2011-02-21 09:41:22 51°20.713 3°2.58 5.4056 2.947758 29.816501 0.670986
2011-02-21 09:42:22 51°20.702 3°2.546 5.4374 2.944598 29.786603 0.566514
2011-02-21 09:43:22 51°20.688 3°2.491 5.4247 2.952393 29.843607 1.297819
2011-02-21 09:44:22 51°20.672 3°2.436 5.413 2.950813 29.836749 1.088875
2011-02-21 09:45:22 51°20.657 3°2.381 5.4053 2.947758 29.814193 0.879931
2011-02-21 09:46:22 51°20.642 3°2.323 5.4146 2.946283 29.801575 0.879931
2011-02-21 09:47:22 51°20.628 3°2.264 5.4263 2.947969 29.813467 1.158523
2011-02-21 09:48:22 51°20.615 3°2.205 5.4208 2.949759 29.824992 1.193347
2011-02-21 09:49:22 51°20.616 3°2.142 5.4198 2.948917 29.820972 1.158523
2011-02-21 09:50:22 51°20.654 3°2.127 5.3954 2.947758 29.811115 0.984403
2011-02-21 09:51:22 51°20.687 3°2.283 5.3778 2.941438 29.759773 0.914755
2011-02-21 09:52:22 51°20.709 3°2.466 5.3774 2.936383 29.711759 0.914755
2011-02-21 09:53:22 51°20.684 3°2.534 5.3722 2.934276 29.695138 0.984403
2011-02-21 09:54:22 51°20.67 3°2.55 5.3669 2.931853 29.671147 0.845107
2011-02-21 09:55:22 51°20.668 3°2.544 5.3637 2.931221 29.666389 0.879931
2011-02-21 09:56:22 51°20.669 3°2.528 5.3611 2.928799 29.64546 0.740634
2011-02-21 09:57:22 51°20.667 3°2.509 5.3687 2.928167 29.639167 0.775459
2011-02-21 09:58:22 51°20.665 3°2.485 5.3639 2.928483 29.6381 0.845107
2011-02-21 09:59:22 51°20.661 3°2.458 5.3727 2.929115 29.645925 0.810283
2011-02-21 10:00:22 51°20.656 3°2.43 5.3769 2.929958 29.651505 1.019227
2011-02-21 10:01:22 51°20.651 3°2.401 5.3791 2.93238 29.671663 1.054051
2011-02-21 10:02:22 51°20.646 3°2.374 5.3814 2.931853 29.665782 1.193347
2011-02-21 10:03:22 51°20.643 3°2.349 5.3882 2.934276 29.688234 1.123699
2011-02-21 10:04:22 51°20.639 3°2.328 5.3896 2.934381 29.687877 1.123699
2011-02-21 10:05:22 51°20.638 3°2.307 5.391 2.936277 29.705212 1.123699
2011-02-21 10:06:22 51°20.639 3°2.291 5.3901 2.935645 29.698922 1.228171
2011-02-21 10:07:22 51°20.667 3°2.324 5.3959 2.937541 29.72086 1.123699
2011-02-21 10:08:22 51°20.735 3°2.4 5.3899 2.942281 29.769183 1.228171
2011-02-21 10:09:22 51°20.819 3°2.529 5.3865 2.939437 29.742033 1.158523
2011-02-21 10:10:22 51°20.912 3°2.762 5.3882 2.938805 29.73344 1.193347
2011-02-21 10:11:22 51°21.009 3°3.012 5.3849 2.937962 29.725565 1.193347
2011-02-21 10:12:22 51°21.083 3°3.286 5.3746 2.934276 29.688234 1.158523
2011-02-21 10:13:22 51°21.148 3°3.568 5.3677 2.931221 29.664089 1.019227
2011-02-21 10:14:22 51°21.214 3°3.85 5.3635 2.929747 29.650685 1.088875
2011-02-21 10:15:22 51°21.281 3°4.132 5.3635 2.92743 29.630165 1.123699
2011-02-21 10:16:22 51°21.349 3°4.412 5.3739 2.929431 29.651753 1.123699
2011-02-21 10:17:22 51°21.417 3°4.694 5.4037 2.942386 29.785743 0.984403
2011-02-21 10:18:22 51°21.483 3°4.982 5.4271 2.958186 29.93451 0.914755
2011-02-21 10:19:22 51°21.54 3°5.273 5.4279 2.966507 30.009678 0.984403
2011-02-21 10:20:22 51°21.601 3°5.558 5.4118 2.969352 30.041448 0.984403
2011-02-21 10:21:22 51°21.661 3°5.843 5.4034 2.96082 29.963931 0.984403
2011-02-21 10:22:22 51°21.723 3°6.129 5.3983 2.957765 29.934439 0.845107
2011-02-21 10:23:22 51°21.786 3°6.419 5.4031 2.953552 29.891998 0.879931
2011-02-21 10:24:22 51°21.848 3°6.715 5.4322 2.959872 29.955659 0.775459
2011-02-21 10:25:22 51°21.913 3°7.011 5.4193 2.970826 30.060249 0.810283
2011-02-21 10:26:22 51°21.977 3°7.306 5.3915 2.964401 29.993112 0.775459
2011-02-21 10:27:22 51°22.041 3°7.601 5.3797 2.94207 29.769906 0.740634
2011-02-21 10:28:22 51°22.109 3°7.893 5.3678 2.934276 29.691302 0.740634
2011-02-21 10:29:22 51°22.157 3°8.193 5.3375 2.923427 29.582403 0.775459
2011-02-21 10:30:22 51°22.196 3°8.496 5.3225 2.899519 29.349712 0.775459
2011-02-21 10:31:22 51°22.225 3°8.804 5.3163 2.894463 29.297815 0.740634
2011-02-21 10:32:22 51°22.255 3°9.114 5.3061 2.89025 29.25608 0.775459
2011-02-21 10:33:22 51°22.287 3°9.425 5.2927 2.882667 29.180492 0.70581
2011-02-21 10:34:22 51°22.302 3°9.738 5.2802 2.868028 29.029885 0.70581
2011-02-21 10:35:22 51°22.3 3°10.055 5.3022 2.857602 28.924779 0.740634
2011-02-21 10:36:22 51°22.302 3°10.375 5.2315 2.865922 29.001869 0.740634
2011-02-21 10:37:22 51°22.308 3°10.699 5.2216 2.830011 28.646748 0.775459
2011-02-21 10:38:22 51°22.356 3°11.009 5.209 2.813267 28.478485 0.775459
2011-02-21 10:39:22 51°22.441 3°11.303 5.2324 2.80579 28.400259 0.775459
2011-02-21 10:40:22 51°22.502 3°11.605 5.2552 2.801999 28.334442 0.775459
2011-02-21 10:41:22 51°22.541 3°11.916 5.2578 2.792417 28.215993 0.775459
2011-02-21 10:42:22 51°22.561 3°12.227 5.2425 2.786625 28.150074 0.70581
2011-02-21 10:43:22 51°22.568 3°12.408 5.2343 2.773147 28.013213 0.740634
2011-02-21 10:44:22 51°22.571 3°12.505 5.2336 2.769883 27.983432 0.740634
2011-02-21 10:45:22 51°22.573 3°12.566 5.2349 2.768935 27.973614 0.740634
2011-02-21 10:46:22 51°22.575 3°12.607 5.2378 2.770725 27.991352 0.70581
2011-02-21 10:47:22 51°22.581 3°12.644 5.2366 2.771673 28.00117 0.70581
2011-02-21 10:48:22 51°22.594 3°12.775 5.2342 2.770093 27.985049 0.740634
2011-02-21 10:49:22 51°22.6 3°12.937 5.2326 2.767987 27.96307 0.70581
2011-02-21 10:50:22 51°22.588 3°13.09 5.2351 2.768409 27.96703 0.740634
2011-02-21 10:51:22 51°22.551 3°13.124 5.2343 2.768619 27.968648 0.775459
2011-02-21 10:52:22 51°22.55 3°13.105 5.2336 2.767882 27.964075 0.740634
2011-02-21 10:53:23 51°22.549 3°13.085 5.235 2.769883 27.986336 0.740634
2011-02-21 10:54:22 51°22.547 3°13.064 5.2443 2.771146 27.999671 0.775459
2011-02-21 10:55:22 51°22.545 3°13.039 5.2991 2.772831 27.995901 0.775459
2011-02-21 10:56:22 51°22.541 3°13.012 5.2798 2.773462 27.985514 0.70581
2011-02-21 10:57:22 51°22.536 3°12.985 5.2659 2.771883 27.97666 0.70581
2011-02-21 10:58:22 51°22.522 3°12.933 5.2478 2.771356 27.966459 0.775459
2011-02-21 10:59:22 51°22.55 3°12.837 5.238 2.769672 27.976008 0.740634
2011-02-21 11:00:22 51°22.608 3°12.863 5.238 2.769251 27.973499 0.775459
2011-02-21 11:01:22 51°22.611 3°12.983 5.2289 2.765039 27.930271 0.740634
2011-02-21 11:02:22 51°22.622 3°13.134 5.2228 2.764197 27.925972 0.740634
2011-02-21 11:03:22 51°22.634 3°13.232 5.2149 2.759774 27.882564 0.70581
2011-02-21 11:04:22 51°22.634 3°13.244 5.2126 2.75651 27.851312 0.70581
2011-02-21 11:05:22 51°22.632 3°13.245 5.2136 2.754615 27.833117 0.70581
2011-02-21 11:06:22 51°22.63 3°13.24 5.2137 2.753773 27.822301 0.70581
2011-02-21 11:07:22 51°22.629 3°13.231 5.2104 2.754194 27.827709 0.740634
2011-02-21 11:08:22 51°22.628 3°13.22 5.21 2.753878 27.827085 0.70581
2011-02-21 11:09:22 51°22.63 3°13.209 5.2079 2.753562 27.82357 0.70581
2011-02-21 11:10:22 51°22.634 3°13.199 5.2066 2.752509 27.811855 0.70581
2011-02-21 11:11:22 51°22.639 3°13.192 5.2096 2.752509 27.812577 0.740634
2011-02-21 11:12:22 51°22.645 3°13.184 5.207 2.749982 27.785185 0.740634
2011-02-21 11:13:22 51°22.652 3°13.179 5.2052 2.748192 27.767436 0.70581
2011-02-21 11:14:22 51°22.66 3°13.174 5.2059 2.747666 27.762301 0.670986
2011-02-21 11:15:22 51°22.696 3°13.188 5.2101 2.746508 27.750137 0.70581
2011-02-21 11:16:22 51°22.773 3°13.076 5.2105 2.744191 27.72149 0.670986
2011-02-21 11:17:22 51°22.851 3°12.815 5.1882 2.736505 27.63961 0.636162
2011-02-21 11:18:22 51°22.935 3°12.487 5.1772 2.720396 27.474835 0.636162
2011-02-21 11:19:22 51°23.023 3°12.153 5.1874 2.712079 27.387378 0.636162
2011-02-21 11:20:22 51°23.11 3°11.817 5.2089 2.717343 27.43662 0.670986
2011-02-21 11:21:22 51°23.209 3°11.49 5.2304 2.733662 27.601551 0.636162
2011-02-21 11:22:22 51°23.317 3°11.172 5.2562 2.75114 27.778595 0.636162
2011-02-21 11:23:22 51°23.428 3°10.859 5.2743 2.780412 28.08095 0.70581
2011-02-21 11:24:22 51°23.546 3°10.555 5.2675 2.799472 28.28281 0.636162
2011-02-21 11:25:22 51°23.668 3°10.255 5.2651 2.815794 28.469728 0.636162
2011-02-21 11:26:22 51°23.792 3°9.955 5.2632 2.822428 28.545139 0.636162
2011-02-21 11:27:22 51°23.918 3°9.654 5.2685 2.825377 28.578007 0.601338
2011-02-21 11:28:22 51°24.047 3°9.356 5.299 2.83833 28.717982 0.670986
2011-02-21 11:29:22 51°24.177 3°9.061 5.3132 2.879403 29.151591 0.636162
2011-02-21 11:30:22 51°24.308 3°8.773 5.3473 2.894463 29.305399 0.670986
2011-02-21 11:31:22 51°24.429 3°8.491 5.4572 2.937225 29.746527 0.775459
2011-02-21 11:32:22 51°24.544 3°8.205 5.5347 3.026763 30.656004 0.70581
2011-02-21 11:33:22 51°24.663 3°7.922 5.5629 3.081651 31.205164 0.70581
2011-02-21 11:34:22 51°24.779 3°7.638 5.5686 3.096612 31.350172 0.740634
2011-02-21 11:35:22 51°24.959 3°7.537 5.58 3.104725 31.4273 0.775459
2011-02-21 11:36:22 51°25.146 3°7.586 5.5702 3.114313 31.5282 0.879931
2011-02-21 11:37:22 51°25.328 3°7.682 5.5549 3.11916 31.591414 0.914755
2011-02-21 11:38:22 51°25.512 3°7.777 5.5417 3.118633 31.598501 1.019227
2011-02-21 11:39:22 51°25.696 3°7.88 5.5129 3.119371 31.620587 1.054051
2011-02-21 11:40:22 51°25.881 3°7.976 5.4881 3.118949 31.640272 1.019227
2011-02-21 11:41:22 51°26.064 3°8.074 5.4719 3.114735 31.614946 1.054051
2011-02-21 11:42:22 51°26.247 3°8.171 5.4657 3.108097 31.557489 0.984403
2011-02-21 11:43:22 51°26.424 3°8.265 5.461 3.103883 31.515843 1.158523
2011-02-21 11:44:22 51°26.513 3°8.334 5.4557 3.103778 31.520347 1.228171
2011-02-21 11:45:22 51°26.515 3°8.414 5.4478 3.105463 31.541725 1.193347
2011-02-21 11:46:22 51°26.466 3°8.464 5.4441 3.102303 31.513528 1.019227
2011-02-21 11:47:22 51°26.44 3°8.452 5.4447 3.099774 31.487553 1.088875
2011-02-21 11:48:25 51°26.423 3°8.436 5.4437 3.100301 31.496722 1.262995
2011-02-21 11:49:23 51°26.406 3°8.42 5.4425 3.099142 31.486135 1.193347
2011-02-21 11:50:22 51°26.387 3°8.402 5.4416 3.099458 31.491312 0.984403
2011-02-21 11:51:22 51°26.368 3°8.383 5.4431 3.099353 31.489315 0.949579
2011-02-21 11:52:22 51°26.349 3°8.363 5.4649 3.100195 31.497163 0.984403
2011-02-21 11:53:22 51°26.329 3°8.344 5.4436 3.103251 31.516867 1.158523
2011-02-21 11:54:22 51°26.308 3°8.325 5.4436 3.100511 31.499902 0.914755
2011-02-21 11:55:22 51°26.287 3°8.304 5.4433 3.099879 31.492798 0.914755
2011-02-21 11:56:22 51°26.265 3°8.283 5.4619 3.100933 31.490828 0.810283
2011-02-21 11:57:22 51°26.242 3°8.261 5.4536 3.102302 31.503778 0.879931
2011-02-21 11:58:22 51°26.22 3°8.237 5.45 3.102724 31.515825 0.949579
2011-02-21 11:59:22 51°26.197 3°8.214 5.4536 3.103672 31.528105 0.949579
2011-02-21 12:00:22 51°26.174 3°8.191 5.4396 3.103145 31.521373 0.845107
2011-02-21 12:01:22 51°26.15 3°8.168 5.4411 3.100828 31.503454 0.775459
2011-02-21 12:02:22 51°26.126 3°8.145 5.4595 3.100512 31.500715 0.914755
2011-02-21 12:03:22 51°26.103 3°8.123 5.4521 3.103251 31.519305 0.914755
2011-02-21 12:04:22 51°26.08 3°8.102 5.4536 3.104199 31.532399 0.984403
2011-02-21 12:05:22 51°26.058 3°8.081 5.4517 3.104515 31.535137 0.984403
2011-02-21 12:06:22 51°26.037 3°8.061 5.4695 3.10599 31.550085 0.949579
2011-02-21 12:07:22 51°26.016 3°8.042 5.5267 3.108308 31.550911 1.019227
2011-02-21 12:08:22 51°25.994 3°8.024 5.4818 3.112522 31.560024 0.914755
2011-02-21 12:09:22 51°25.973 3°8.006 5.4682 3.111258 31.568587 0.949579
2011-02-21 12:10:22 51°25.927 3°7.986 5.4622 3.110626 31.589149 1.019227
2011-02-21 12:11:22 51°25.836 3°7.953 5.4579 3.110099 31.589745 1.054051
2011-02-21 12:12:22 51°25.779 3°7.816 5.4548 3.107044 31.559483 1.123699
2011-02-21 12:13:22 51°25.808 3°7.684 5.4548 3.105253 31.541798 1.088875
2011-02-21 12:14:22 51°25.888 3°7.544 5.4551 3.105463 31.543352 0.984403
2011-02-21 12:15:22 51°25.994 3°7.335 5.4442 3.105042 31.541057 0.949579
2011-02-21 12:16:22 51°26.121 3°7.085 5.4396 3.099879 31.490361 0.949579
2011-02-21 12:17:22 51°26.253 3°6.829 5.4476 3.097772 31.469932 0.949579
2011-02-21 12:18:22 51°26.389 3°6.582 5.4622 3.103567 31.527735 0.914755
2011-02-21 12:19:22 51°26.531 3°6.342 5.472 3.111153 31.603214 0.949579
2011-02-21 12:20:22 51°26.68 3°6.118 5.4702 3.116737 31.656181 0.810283
2011-02-21 12:21:22 51°26.83 3°5.895 5.4772 3.115578 31.642342 0.775459
2011-02-21 12:22:22 51°26.985 3°5.677 5.4689 3.124113 31.722722 0.775459
2011-02-21 12:23:22 51°27.133 3°5.439 5.4685 3.115473 31.641974 0.70581
2011-02-21 12:24:22 51°27.28 3°5.198 5.465 3.113998 31.629476 0.70581
2011-02-21 12:25:22 51°27.432 3°4.97 5.4804 3.115157 31.644948 0.70581
2011-02-21 12:26:22 51°27.582 3°4.737 5.4993 3.12348 31.727062 0.70581
2011-02-21 12:27:22 51°27.718 3°4.476 5.5186 3.134649 31.837032 0.70581
2011-02-21 12:28:22 51°27.863 3°4.228 5.5198 3.144764 31.927721 0.740634
2011-02-21 12:29:22 51°28.011 3°3.979 5.526 3.149927 31.983274 0.636162
2011-02-21 12:30:22 51°28.156 3°3.722 5.5779 3.153721 32.022613 0.740634
2011-02-21 12:31:22 51°28.248 3°3.519 5.7192 3.178377 32.236028 0.670986
2011-02-21 12:32:22 51°28.312 3°3.476 5.7456 3.211254 32.483744 0.740634
2011-02-21 12:33:22 51°28.328 3°3.552 5.7573 3.218315 32.538733 0.740634
2011-02-21 12:34:22 51°28.283 3°3.601 5.7506 3.220949 32.560753 0.70581
2011-02-21 12:35:22 51°28.268 3°3.589 5.7502 3.219895 32.55311 0.670986
2011-02-21 12:36:23 51°28.26 3°3.578 5.7503 3.219474 32.550053 0.70581
2011-02-21 12:37:22 51°28.251 3°3.564 5.7527 3.219685 32.554078 0.740634
2011-02-21 12:38:22 51°28.242 3°3.549 5.812 3.220844 32.547928 0.740634
2011-02-21 12:39:22 51°28.232 3°3.532 5.7697 3.224004 32.527658 0.53169
2011-02-21 12:40:22 51°28.22 3°3.514 5.7808 3.222319 32.557793 0.462042
2011-02-21 12:41:22 51°28.208 3°3.497 5.7709 3.223162 32.564735 0.462042
2011-02-21 12:42:22 51°28.196 3°3.48 5.7841 3.222003 32.565065 0.601338
2011-02-21 12:43:22 51°28.183 3°3.465 5.8086 3.222951 32.555725 0.670986
2011-02-21 12:44:22 51°28.17 3°3.449 5.8397 3.226639 32.558768 0.601338
2011-02-21 12:45:22 51°28.156 3°3.434 5.7881 3.22685 32.559464 0.670986
2011-02-21 12:46:22 51°28.143 3°3.42 5.816 3.22411 32.565372 0.70581
2011-02-21 12:47:22 51°28.131 3°3.407 5.7734 3.225585 32.553628 0.670986
2011-02-21 12:48:22 51°28.117 3°3.394 5.8322 3.223162 32.568061 0.70581
2011-02-21 12:49:22 51°28.103 3°3.381 5.838 3.226744 32.550817 0.636162
2011-02-21 12:50:22 51°28.09 3°3.369 5.8641 3.227482 32.553253 0.70581
2011-02-21 12:51:22 51°28.076 3°3.36 5.8328 3.228325 32.555207 0.670986
2011-02-21 12:52:22 51°28.062 3°3.351 5.825 3.228009 32.560801 0.670986
2011-02-21 12:53:22 51°28.048 3°3.343 5.8513 3.226323 32.557724 0.636162
2011-02-21 12:54:22 51°28.034 3°3.334 5.8483 3.228114 32.557829 0.670986
2011-02-21 12:55:22 51°28.02 3°3.327 5.8152 3.22822 32.559837 0.636162
2011-02-21 12:56:22 51°28.007 3°3.319 5.8305 3.225796 32.557645 0.670986
2011-02-21 12:57:22 51°27.994 3°3.314 5.8272 3.226639 32.556278 0.670986
2011-02-21 12:58:22 51°27.982 3°3.308 5.8162 3.226007 32.55336 0.636162
2011-02-21 12:59:22 51°27.971 3°3.303 5.8114 3.225269 32.56172 0.670986
2011-02-21 13:00:22 51°27.958 3°3.299 5.8379 3.225058 32.546906 0.670986
2011-02-21 13:01:22 51°27.945 3°3.295 5.7995 3.226428 32.545624 0.670986
2011-02-21 13:02:22 51°27.934 3°3.293 5.7845 3.223267 32.547629 0.636162
2011-02-21 13:03:22 51°27.917 3°3.289 5.7764 3.221686 32.539912 0.566514
2011-02-21 13:04:22 51°27.882 3°3.242 5.7404 3.219895 32.533156 0.70581
2011-02-21 13:05:22 51°27.854 3°3.083 5.7103 3.215469 32.515177 0.740634
2011-02-21 13:06:22 51°27.826 3°2.766 5.6058 3.206618 32.445904 0.740634
2011-02-21 13:07:22 51°27.806 3°2.429 5.7559 3.175321 32.191793 0.636162
2011-02-21 13:08:22 51°27.784 3°2.097 5.7991 3.215785 32.5021 0.740634
2011-02-21 13:09:22 51°27.754 3°1.769 5.804 3.22548 32.576545 0.740634
2011-02-21 13:10:22 51°27.719 3°1.445 5.8268 3.231276 32.624754 0.740634
2011-02-21 13:11:22 51°27.684 3°1.123 5.833 3.235597 32.6556 0.740634
2011-02-21 13:12:22 51°27.652 3°0.799 5.8358 3.237704 32.67334 0.775459
2011-02-21 13:13:22 51°27.619 3°0.474 5.8481 3.238653 32.678948 0.810283
2011-02-21 13:14:22 51°27.586 3°0.146 5.848 3.242552 32.714211 0.775459
2011-02-21 13:15:22 51°27.556 2°59.817 5.8524 3.243184 32.717946 0.740634
2011-02-21 13:16:21 51°27.519 2°59.497 5.8554 3.247084 32.756534 0.740634
2011-02-21 13:17:22 51°27.476 2°59.169 5.8544 3.248243 32.770329 0.740634
2011-02-21 13:18:22 51°27.434 2°58.848 5.8507 3.249297 32.780442 0.740634
2011-02-21 13:19:22 51°27.395 2°58.529 5.8554 3.250772 32.796938 0.636162
2011-02-21 13:20:22 51°27.354 2°58.214 5.8484 3.252248 32.813436 0.740634
2011-02-21 13:21:22 51°27.318 2°57.899 5.8428 3.250772 32.801116 0.740634
2011-02-21 13:22:22 51°27.283 2°57.579 5.8362 3.248243 32.78035 0.70581
2011-02-21 13:23:22 51°27.248 2°57.26 5.8237 3.245924 32.7611 0.740634
2011-02-21 13:24:22 51°27.215 2°56.937 5.831 3.240339 32.711976 0.740634
2011-02-21 13:25:22 51°27.182 2°56.622 5.8365 3.245925 32.765276 0.70581
2011-02-21 13:26:22 51°27.153 2°56.306 5.8275 3.247084 32.774067 0.740634
2011-02-21 13:27:22 51°27.122 2°55.982 5.8286 3.244765 32.755649 0.70581
2011-02-21 13:28:22 51°27.095 2°55.657 5.8217 3.245292 32.759873 0.775459
2011-02-21 13:29:22 51°27.067 2°55.332 5.8287 3.241498 32.724944 0.810283
2011-02-21 13:30:22 51°27.039 2°55.011 5.8338 3.245398 32.761887 0.810283
2011-02-21 13:31:22 51°26.997 2°54.694 5.8754 3.246241 32.767978 0.775459
2011-02-21 13:32:21 51°26.958 2°54.388 5.8686 3.26521 32.942485 0.740634
2011-02-21 13:33:22 51°26.919 2°54.07 5.8583 3.2611 32.899875 0.775459
2011-02-21 13:34:22 51°26.881 2°53.758 5.8619 3.257939 32.871219 0.810283
2011-02-21 13:35:22 51°26.841 2°53.439 5.8669 3.258149 32.871902 0.740634
2011-02-21 13:36:22 51°26.805 2°53.116 5.8979 3.260784 32.895502 0.775459
2011-02-21 13:37:22 51°26.764 2°52.801 5.9673 3.276171 33.040696 0.740634
2011-02-21 13:38:22 51°26.723 2°52.501 6.0018 3.314007 33.394442 0.914755
2011-02-21 13:39:22 51°26.686 2°52.202 6.0085 3.330344 33.547299 0.984403
2011-02-21 13:40:22 51°26.648 2°51.903 6.0137 3.334454 33.584723 0.949579
2011-02-21 13:41:21 51°26.6 2°51.614 6.0116 3.338776 33.629608 0.984403
2011-02-21 13:42:22 51°26.548 2°51.315 6.0086 3.339303 33.636351 0.949579
2011-02-21 13:43:21 51°26.499 2°51.024 6.0094 3.339092 33.634847 1.019227
2011-02-21 13:44:22 51°26.445 2°50.726 6.0101 3.339935 33.643419 0.949579
2011-02-21 13:45:21 51°26.396 2°50.441 6.0114 3.340884 33.653168 0.984403
2011-02-21 13:46:22 51°26.343 2°50.145 6.0173 3.342465 33.67084 1.054051
2011-02-21 13:47:22 51°26.295 2°49.855 6.024 3.346049 33.704064 1.019227
2011-02-21 13:48:22 51°26.248 2°49.561 6.0266 3.349738 33.737605 1.054051
2011-02-21 13:49:22 51°26.203 2°49.269 6.0308 3.351319 33.75271 1.088875
2011-02-21 13:50:22 51°26.154 2°48.979 6.0336 3.352584 33.765992 1.123699
2011-02-21 13:51:22 51°26.108 2°48.696 6.046 3.354165 33.778528 1.123699
2011-02-21 13:52:22 51°26.077 2°48.564 6.0698 3.358064 33.810125 1.158523
2011-02-21 13:53:22 51°26.036 2°48.544 6.0524 3.36091 33.82308 1.123699
2011-02-21 13:54:22 51°26.01 2°48.539 6.0554 3.359224 33.818798 1.158523
2011-02-21 13:55:22 51°26.004 2°48.557 6.0504 3.35954 33.821475 1.088875
2011-02-21 13:56:22 51°26.004 2°48.582 6.049 3.359013 33.819012 1.228171
2011-02-21 13:57:22 51°26.008 2°48.612 6.0536 3.359224 33.819655 1.158523
2011-02-21 13:58:22 51°26.016 2°48.644 6.0532 3.359224 33.820511 1.158523
2011-02-21 13:59:22 51°26.025 2°48.676 6.0656 3.359329 33.819119 1.158523
2011-02-21 14:00:22 51°26.006 2°48.71 6.0576 3.359856 33.819013 1.123699
2011-02-21 14:01:22 51°25.946 2°48.674 6.0519 3.359435 33.819441 1.158523
2011-02-21 14:02:22 51°25.875 2°48.508 6.0596 3.358697 33.810341 1.193347
2011-02-21 14:03:22 51°25.797 2°48.247 6.0745 3.359751 33.816123 1.158523
2011-02-21 14:04:22 51°25.714 2°47.977 6.0936 3.362491 33.829608 1.262995
2011-02-21 14:05:22 51°25.633 2°47.717 6.1118 3.365759 33.848111 1.262995
2011-02-21 14:06:22 51°25.549 2°47.45 6.1207 3.368499 33.862432 1.332643
2011-02-21 14:07:22 51°25.467 2°47.179 6.1344 3.370502 33.871081 1.297819
2011-02-21 14:08:22 51°25.381 2°46.913 6.1453 3.371661 33.878023 1.332643
2011-02-21 14:09:22 51°25.298 2°46.646 6.156 3.373347 33.883138 1.402292
2011-02-21 14:10:22 51°25.219 2°46.376 6.1632 3.374928 33.889643 1.332643
2011-02-21 14:11:22 51°25.14 2°46.109 6.1708 3.375772 33.893053 1.402292
2011-02-21 14:12:22 51°25.055 2°45.842 6.177 3.376931 33.898277 1.506764
2011-02-21 14:13:22 51°24.972 2°45.569 6.1825 3.377669 33.900511 1.437116
2011-02-21 14:14:22 51°24.888 2°45.299 6.1868 3.378723 33.905413 1.47194
2011-02-21 14:15:22 51°24.803 2°45.031 6.1916 3.37925 33.907864 1.332643
2011-02-21 14:16:22 51°24.722 2°44.759 6.1961 3.379988 33.910952 1.437116
2011-02-21 14:17:22 51°24.639 2°44.49 6.2038 3.380515 33.909982 1.367467
2011-02-21 14:18:22 51°24.558 2°44.222 6.213 3.381463 33.913706 1.402292
2011-02-21 14:19:22 51°24.475 2°43.959 6.2238 3.382412 33.915721 1.402292
2011-02-21 14:20:22 51°24.396 2°43.688 6.2431 3.384836 33.93245 1.402292
2011-02-21 14:21:22 51°24.314 2°43.418 6.2559 3.38726 33.940626 1.297819
2011-02-21 14:22:22 51°24.231 2°43.148 6.2777 3.389369 33.950405 1.47194
2011-02-21 14:23:22 51°24.146 2°42.89 6.3012 3.392636 33.964527 1.47194
2011-02-21 14:24:22 51°24.062 2°42.628 6.3239 3.396325 33.983322 1.437116
2011-02-21 14:25:22 51°23.979 2°42.363 6.3479 3.400014 34.0021 1.47194
2011-02-21 14:26:22 51°23.898 2°42.093 6.3662 3.403809 34.021177 1.506764
2011-02-21 14:27:22 51°23.816 2°41.828 6.3847 3.407077 34.040366 1.402292
2011-02-21 14:28:21 51°23.738 2°41.563 6.3932 3.409923 34.054864 1.541588
2011-02-21 14:29:22 51°23.655 2°41.285 6.4092 3.411293 34.059818 1.506764
2011-02-21 14:30:22 51°23.576 2°41.017 6.4196 3.413823 34.073358 1.541588
2011-02-21 14:31:22 51°23.495 2°40.753 6.4248 3.416036 34.086798 1.47194
2011-02-21 14:32:22 51°23.414 2°40.488 6.4288 3.417196 34.093673 1.402292
2011-02-21 14:33:22 51°23.334 2°40.222 6.4363 3.418355 34.102254 1.402292
2011-02-21 14:34:22 51°23.254 2°39.952 6.4449 3.419726 34.109754 1.506764
2011-02-21 14:35:22 51°23.166 2°39.694 6.4443 3.420885 34.118331 1.506764
2011-02-21 14:36:22 51°23.079 2°39.435 6.4448 3.42078 34.112896 1.437116
2011-02-21 14:37:22 51°22.994 2°39.177 6.4512 3.420991 34.115231 1.47194
2011-02-21 14:38:22 51°22.904 2°38.917 6.4527 3.421939 34.121471 1.402292
2011-02-21 14:39:22 51°22.816 2°38.653 6.4526 3.422466 34.123895 1.541588
2011-02-21 14:40:22 51°22.728 2°38.391 6.4553 3.422993 34.128878 1.47194
2011-02-21 14:41:22 51°22.638 2°38.132 6.4711 3.423204 34.132066 1.332643
2011-02-21 14:42:22 51°22.551 2°37.874 6.4908 3.425629 34.14184 1.193347
2011-02-21 14:43:22 51°22.544 2°37.58 6.5023 3.428791 34.152095 1.332643
2011-02-21 14:44:22 51°22.551 2°37.28 6.5046 3.430161 34.162137 1.332643
2011-02-21 14:45:22 51°22.567 2°36.98 6.5011 3.430688 34.165408 1.437116
2011-02-21 14:46:22 51°22.58 2°36.674 6.5001 3.429634 34.155453 1.506764
2011-02-21 14:47:22 51°22.593 2°36.368 6.5004 3.430056 34.158412 1.402292
2011-02-21 14:48:21 51°22.499 2°36.131 6.4966 3.429529 34.159406 1.367467
2011-02-21 14:49:22 51°22.37 2°35.909 6.4954 3.429107 34.151329 1.506764
2011-02-21 14:50:22 51°22.247 2°35.683 6.5009 3.428685 34.150929 1.541588
2011-02-21 14:51:22 51°22.132 2°35.444 6.5116 3.429845 34.156933 1.506764
2011-02-21 14:52:22 51°22.021 2°35.201 6.5281 3.431426 34.162481 1.506764
2011-02-21 14:53:22 51°21.911 2°34.956 6.5433 3.433956 34.175106 1.437116
2011-02-21 14:54:22 51°21.797 2°34.717 6.5664 3.437118 34.193007 1.506764
2011-02-21 14:55:22 51°21.683 2°34.48 6.593 3.440597 34.209274 1.437116
2011-02-21 14:56:22 51°21.572 2°34.238 6.6108 3.444708 34.230805 1.402292
2011-02-21 14:57:22 51°21.461 2°33.997 6.626 3.448292 34.249909 1.402292
2011-02-21 14:58:22 51°21.352 2°33.755 6.6325 3.450717 34.264728 1.402292
2011-02-21 14:59:21 51°21.255 2°33.509 6.6362 3.451454 34.265198 1.402292
2011-02-21 15:00:22 51°21.155 2°33.25 6.6392 3.452087 34.268766 1.367467
2011-02-21 15:01:22 51°21.057 2°32.998 6.6393 3.452403 34.272254 1.402292
2011-02-21 15:02:22 51°20.961 2°32.741 6.6411 3.452719 34.271481 1.437116
2011-02-21 15:03:22 51°20.862 2°32.481 6.6463 3.453036 34.274969 1.47194
2011-02-21 15:04:22 51°20.761 2°32.223 6.6512 3.45409 34.279776 1.402292
2011-02-21 15:05:22 51°20.662 2°31.966 6.6603 3.455144 34.286287 1.297819
2011-02-21 15:06:22 51°20.557 2°31.71 6.6717 3.456514 34.292874 1.297819
2011-02-21 15:07:22 51°20.454 2°31.456 6.6853 3.458412 34.303564 1.367467
2011-02-21 15:08:22 51°20.355 2°31.204 6.702 3.460626 34.312623 1.402292
2011-02-21 15:09:22 51°20.252 2°30.961 6.7189 3.463366 34.326629 1.437116
2011-02-21 15:10:22 51°20.148 2°30.715 6.7291 3.466423 34.344961 1.367467
2011-02-21 15:11:22 51°20.049 2°30.468 6.7309 3.467688 34.350369 1.47194
2011-02-21 15:12:22 51°19.965 2°30.211 6.7347 3.468216 34.351912 1.576412
2011-02-21 15:13:22 51°19.93 2°30.033 6.735 3.468321 34.350518 1.437116
2011-02-21 15:14:22 51°19.999 2°30.012 6.7296 3.470008 34.365675 1.437116
2011-02-21 15:15:22 51°20.073 2°30.076 6.7301 3.469586 34.366145 1.367467
2011-02-21 15:16:22 51°20.107 2°30.22 6.7288 3.469691 34.369862 1.402292
2011-02-21 15:17:22 51°20.095 2°30.316 6.726 3.469164 34.368321 1.47194
2011-02-21 15:18:22 51°20.108 2°30.36 6.7245 3.468637 34.364222 1.437116
2011-02-21 15:19:22 51°20.12 2°30.399 6.7248 3.467372 34.351999 1.437116
2011-02-21 15:20:22 51°20.131 2°30.439 6.7392 3.467161 34.348826 1.402292
2011-02-21 15:21:22 51°20.143 2°30.481 6.7607 3.469375 34.364677 1.437116
2011-02-21 15:22:21 51°20.151 2°30.522 6.7408 3.4718 34.362401 1.367467
2011-02-21 15:23:22 51°20.148 2°30.562 6.7342 3.470429 34.362649 1.297819
2011-02-21 15:24:21 51°20.09 2°30.654 6.7417 3.468743 34.362826 1.297819
2011-02-21 15:25:22 51°20.01 2°30.852 6.739 3.468637 34.351443 1.47194
2011-02-21 15:26:22 51°19.887 2°31.088 6.7563 3.46927 34.358405 1.47194
2011-02-21 15:27:21 51°19.749 2°31.335 6.7585 3.470007 34.349496 1.437116
2011-02-21 15:28:22 51°19.603 2°31.599 6.7457 3.470535 34.354444 1.437116
2011-02-21 15:29:21 51°19.463 2°31.857 6.7377 3.467056 34.328084 1.437116
2011-02-21 15:30:22 51°19.317 2°32.121 6.7263 3.465896 34.322982 1.332643
2011-02-21 15:31:22 51°19.174 2°32.38 6.6736 3.465791 34.336293 1.47194
2011-02-21 15:32:22 51°19.032 2°32.64 6.6547 3.458306 34.302403 1.402292
2011-02-21 15:33:21 51°18.894 2°32.897 6.6659 3.454406 34.274743 1.297819
2011-02-21 15:34:22 51°18.754 2°33.164 6.6673 3.454617 34.2677 1.297819
2011-02-21 15:35:21 51°18.619 2°33.42 6.6672 3.454511 34.265687 1.47194
2011-02-21 15:36:21 51°18.482 2°33.681 6.6823 3.4543 34.259958 1.506764
2011-02-21 15:37:22 51°18.339 2°33.944 6.6889 3.455355 34.25796 1.47194
2011-02-21 15:38:21 51°18.202 2°34.202 6.6916 3.455882 34.258662 1.437116
2011-02-21 15:39:22 51°18.062 2°34.473 6.6929 3.456198 34.257043 1.367467
2011-02-21 15:40:22 51°17.921 2°34.741 6.6946 3.455882 34.25526 1.47194
2011-02-21 15:41:22 51°17.779 2°35.01 6.6949 3.456198 34.256192 1.47194
2011-02-21 15:42:21 51°17.636 2°35.275 6.6915 3.456198 34.255342 1.47194
2011-02-21 15:43:22 51°17.483 2°35.539 6.6885 3.455671 34.252088 1.47194
2011-02-21 15:44:21 51°17.335 2°35.798 6.6835 3.45546 34.254868 1.541588
2011-02-21 15:45:21 51°17.184 2°36.056 6.6713 3.454933 34.253314 1.47194
2011-02-21 15:46:22 51°17.031 2°36.318 6.6545 3.454511 34.258027 1.47194
2011-02-21 15:47:21 51°16.886 2°36.571 6.6228 3.452403 34.255217 1.506764
2011-02-21 15:48:22 51°16.735 2°36.804 6.5487 3.447976 34.247271 1.402292
2011-02-21 15:49:21 51°16.657 2°36.813 6.5423 3.439121 34.199791 1.576412
2011-02-21 15:50:22 51°16.64 2°36.791 6.5407 3.437645 34.196273 1.541588
2011-02-21 15:51:22 51°16.657 2°36.813 6.5435 3.437224 34.195877 1.437116
2011-02-21 15:52:22 51°16.674 2°36.83 6.5431 3.437329 34.19619 1.506764
2011-02-21 15:53:21 51°16.691 2°36.844 6.5407 3.437329 34.197042 1.47194
2011-02-21 15:54:22 51°16.71 2°36.86 6.5493 3.437013 34.196959 1.437116
2011-02-21 15:55:21 51°16.726 2°36.876 6.5493 3.43754 34.189141 1.402292
2011-02-21 15:56:22 51°16.743 2°36.894 6.5694 3.43754 34.197667 1.47194
2011-02-21 15:57:21 51°16.733 2°36.911 6.5492 3.438489 34.192804 1.193347
2011-02-21 15:58:21 51°16.645 2°36.924 6.542 3.437224 34.195877 1.332643
2011-02-21 15:59:21 51°16.512 2°36.963 6.5496 3.437118 34.198124 1.402292
2011-02-21 16:00:21 51°16.345 2°36.957 6.5545 3.438278 34.201557 1.367467
2011-02-21 16:01:22 51°16.155 2°36.93 6.5528 3.438805 34.205676 1.47194
2011-02-21 16:02:21 51°15.96 2°36.9 6.5511 3.4387 34.201953 1.332643
2011-02-21 16:03:22 51°15.76 2°36.867 6.5264 3.438067 34.198375 1.332643
2011-02-21 16:04:21 51°15.567 2°36.836 6.4994 3.433956 34.17937 1.576412
2011-02-21 16:05:21 51°15.369 2°36.799 6.5114 3.42974 34.153208 1.611236
2011-02-21 16:06:21 51°15.17 2°36.771 6.5216 3.431848 34.169703 1.611236
2011-02-21 16:07:21 51°14.975 2°36.748 6.5508 3.434378 34.175504 1.506764
2011-02-21 16:08:22 51°14.771 2°36.762 6.4659 3.43617 34.189343 1.47194
2011-02-21 16:09:22 51°14.571 2°36.851 6.4585 3.425312 34.1409 1.576412
2011-02-21 16:10:22 51°14.373 2°36.944 6.463 3.423837 34.131388 1.541588
2011-02-21 16:11:21 51°14.178 2°37.035 6.4578 3.424153 34.130623 1.506764
2011-02-21 16:12:21 51°13.977 2°37.132 6.4386 3.42352 34.127887 1.680884
2011-02-21 16:13:21 51°13.774 2°37.225 6.3994 3.420358 34.110786 1.680884
2011-02-21 16:14:21 51°13.57 2°37.285 6.3682 3.413928 34.079647 1.611236
2011-02-21 16:15:22 51°13.365 2°37.248 6.3442 3.409817 34.060525 1.82018
2011-02-21 16:16:22 51°13.157 2°37.267 6.3219 3.404969 34.034901 1.82018
2011-02-21 16:17:22 51°12.95 2°37.289 6.3013 3.401385 34.013047 1.959476
2011-02-21 16:18:21 51°12.746 2°37.303 6.2875 3.398644 34.004815 1.82018
2011-02-21 16:19:22 51°12.535 2°37.293 6.2837 3.396431 33.994744 1.785356
2011-02-21 16:20:21 51°12.337 2°37.229 6.2788 3.395482 33.986764 1.889828
2011-02-21 16:21:22 51°12.135 2°37.138 6.271 3.394533 33.978783 1.750532
2011-02-21 16:22:21 51°11.939 2°37.061 6.2655 3.39369 33.981371 1.855004
2011-02-21 16:23:21 51°11.736 2°36.98 6.2599 3.392952 33.97744 1.924652
2011-02-21 16:24:22 51°11.533 2°36.895 6.251 3.392636 33.980762 1.785356
2011-02-21 16:25:21 51°11.336 2°36.816 6.2437 3.391582 33.974169 1.855004
2011-02-21 16:26:22 51°11.132 2°36.735 6.2354 3.39095 33.976539 1.82018
2011-02-21 16:27:21 51°10.936 2°36.657 6.2251 3.389369 33.9675 1.715708
2011-02-21 16:28:22 51°10.733 2°36.58 6.2165 3.387471 33.957504 1.64606
2011-02-21 16:29:21 51°10.537 2°36.521 6.2095 3.385469 33.942909 1.750532
2011-02-21 16:30:22 51°10.347 2°36.639 6.2128 3.384836 33.945276 1.889828
2011-02-21 16:31:21 51°10.214 2°36.902 6.2272 3.385153 33.945375 1.680884
2011-02-21 16:32:22 51°10.192 2°37.254 6.2764 3.386734 33.943308 1.576412
2011-02-21 16:33:21 51°10.215 2°37.614 6.3192 3.392214 33.956425 1.541588
2011-02-21 16:34:22 51°10.256 2°37.982 6.3416 3.395376 33.950602 1.228171
2011-02-21 16:35:22 51°10.297 2°38.344 6.3496 3.39506 33.924093 1.437116
2011-02-21 16:36:21 51°10.347 2°38.698 6.3523 3.394216 33.90708 1.402292
2011-02-21 16:37:21 51°10.407 2°39.058 6.3517 3.393162 33.893689 1.506764
2011-02-21 16:38:21 51°10.467 2°39.418 6.3513 3.390843 33.868821 1.437116
2011-02-21 16:39:22 51°10.533 2°39.778 6.3289 3.38863 33.842578 1.367467
2011-02-21 16:40:21 51°10.61 2°40.119 6.2924 3.382094 33.797255 1.193347
2011-02-21 16:41:22 51°10.718 2°40.449 6.2861 3.375981 33.759106 1.297819
2011-02-21 16:42:21 51°10.829 2°40.767 6.2878 3.375032 33.751969 1.506764
2011-02-21 16:43:22 51°10.942 2°41.097 6.2862 3.375665 33.755596 1.541588
2011-02-21 16:44:22 51°11.051 2°41.423 6.2809 3.376613 33.768672 1.437116
2011-02-21 16:45:21 51°11.09 2°41.75 6.269 3.376614 33.773764 1.541588
2011-02-21 16:46:22 51°11.084 2°41.935 6.2549 3.375138 33.770961 1.437116
2011-02-21 16:47:22 51°11.076 2°41.982 6.2397 3.372081 33.754837 1.402292
2011-02-21 16:48:22 51°11.078 2°41.994 6.2367 3.368603 33.72892 1.437116
2011-02-21 16:49:21 51°11.082 2°42 6.209 3.367127 33.717612 1.506764
2011-02-21 16:50:22 51°11.088 2°42.006 6.1943 3.361752 33.685007 1.332643
2011-02-21 16:51:21 51°11.095 2°42.012 6.2715 3.359749 33.675464 1.402292
2011-02-21 16:52:21 51°11.101 2°42.019 6.2409 3.364808 33.663031 1.367467
2011-02-21 16:53:21 51°11.109 2°42.026 6.2206 3.36407 33.672622 1.367467
2011-02-21 16:54:21 51°11.116 2°42.03 6.1985 3.3627 33.683676 1.297819
2011-02-21 16:55:22 51°11.124 2°42.035 6.2095 3.362174 33.699035 1.402292
2011-02-21 16:56:21 51°11.132 2°42.04 6.2032 3.362595 33.696932 1.297819
2011-02-21 16:57:22 51°11.14 2°42.047 6.2035 3.362595 33.699479 1.297819
2011-02-21 16:58:21 51°11.146 2°42.051 6.241 3.362174 33.696488 1.402292
2011-02-21 16:59:21 51°11.154 2°42.055 6.2388 3.366389 33.701777 1.367467
2011-02-21 17:00:21 51°11.16 2°42.06 6.2516 3.366389 33.703473 1.402292
2011-02-21 17:01:21 51°11.166 2°42.063 6.2293 3.368287 33.722859 1.332643
2011-02-21 17:02:21 51°11.173 2°42.066 6.2266 3.367127 33.725253 1.297819
2011-02-21 17:03:21 51°11.18 2°42.069 6.2174 3.367022 33.730026 1.367467
2011-02-21 17:04:22 51°11.187 2°42.071 6.2224 3.366706 33.729059 1.402292
2011-02-21 17:05:21 51°11.194 2°42.073 6.2276 3.367971 33.739725 1.228171
2011-02-21 17:06:21 51°11.202 2°42.075 6.237 3.368498 33.744735 1.367467
2011-02-21 17:07:21 51°11.208 2°42.076 6.2374 3.369446 33.747635 1.262995
2011-02-21 17:08:21 51°11.216 2°42.077 6.2353 3.369446 33.743387 1.367467
2011-02-21 17:09:21 51°11.219 2°42.078 6.2784 3.368919 33.740077 1.402292
2011-02-21 17:10:21 51°11.207 2°42.089 6.2405 3.372397 33.748162 1.297819
2011-02-21 17:11:21 51°11.184 2°42.17 6.2446 3.368709 33.74538 1.262995
2011-02-21 17:12:21 51°11.147 2°42.37 6.2176 3.367865 33.736004 1.262995
2011-02-21 17:13:22 51°11.134 2°42.704 6.1534 3.359433 33.683832 1.367467
2011-02-21 17:14:21 51°11.152 2°43.057 6.1234 3.350158 33.627274 1.437116
2011-02-21 17:15:21 51°11.178 2°43.416 6.1269 3.344572 33.59475 1.402292
2011-02-21 17:16:21 51°11.271 2°43.741 6.1275 3.345731 33.597483 1.332643
2011-02-21 17:17:22 51°11.332 2°44.089 6.1288 3.346153 33.601332 1.367467
2011-02-21 17:18:22 51°11.381 2°44.436 6.1364 3.347207 33.617324 1.402292
2011-02-21 17:19:21 51°11.431 2°44.776 6.1672 3.349947 33.640217 1.402292
2011-02-21 17:20:21 51°11.494 2°45.116 6.1557 3.353004 33.653876 1.506764
2011-02-21 17:21:21 51°11.564 2°45.454 6.1455 3.353953 33.670393 1.437116
2011-02-21 17:22:21 51°11.633 2°45.793 6.1368 3.353215 33.671527 1.437116
2011-02-21 17:23:22 51°11.705 2°46.137 6.1353 3.353215 33.676631 1.437116
2011-02-21 17:24:21 51°11.79 2°46.46 6.1235 3.352793 33.674484 1.367467
2011-02-21 17:25:22 51°11.876 2°46.792 6.1349 3.35311 33.683966 1.332643
2011-02-21 17:26:22 51°11.96 2°47.118 6.1218 3.352899 33.680765 1.402292
2011-02-21 17:27:21 51°12.051 2°47.431 6.1411 3.351845 33.668164 1.47194
2011-02-21 17:28:21 51°12.145 2°47.747 6.1439 3.350791 33.650463 1.576412
2011-02-21 17:29:21 51°12.239 2°48.063 6.1292 3.348366 33.624298 1.506764
2011-02-21 17:30:22 51°12.342 2°48.38 6.1201 3.347629 33.619474 1.47194
2011-02-21 17:31:21 51°12.441 2°48.687 6.1389 3.345731 33.599181 1.437116
2011-02-21 17:32:21 51°12.542 2°48.997 6.131 3.343834 33.582283 1.47194
2011-02-21 17:33:22 51°12.645 2°49.313 6.102 3.342464 33.571256 1.402292
2011-02-21 17:34:21 51°12.748 2°49.615 6.1203 3.339407 33.549914 1.332643
2011-02-21 17:35:22 51°12.856 2°49.925 6.1138 3.340145 33.547959 1.332643
2011-02-21 17:36:21 51°12.965 2°50.222 6.1059 3.339196 33.539931 1.367467
2011-02-21 17:37:22 51°13.078 2°50.53 6.1316 3.337088 33.529153 1.437116
2011-02-21 17:38:21 51°13.178 2°50.835 6.1032 3.337721 33.526877 1.402292
2011-02-21 17:39:21 51°13.274 2°51.149 6.0898 3.337615 33.524007 1.332643
2011-02-21 17:40:22 51°13.37 2°51.468 6.1197 3.336245 33.514668 1.297819
2011-02-21 17:41:22 51°13.469 2°51.775 6.104 3.334559 33.499261 1.332643
2011-02-21 17:42:22 51°13.574 2°52.08 6.0655 3.33361 33.486148 1.437116
2011-02-21 17:43:22 51°13.685 2°52.379 6.1036 3.33087 33.479314 1.297819
2011-02-21 17:44:22 51°13.801 2°52.671 6.0843 3.329078 33.461874 1.367467
2011-02-21 17:45:21 51°13.917 2°52.956 6.0759 3.327286 33.439356 1.332643
2011-02-21 17:46:21 51°14.025 2°53.225 6.3369 1.780067 16.825825 1.158523
2011-02-21 17:47:21 51°14.095 2°53.399 6.518 0.078484 0.606365 1.367467
2011-02-21 17:48:21 51°14.151 2°53.525 6.669 0.066309 0.507307 1.576412
2011-02-21 17:49:22 51°14.197 2°53.625 6.7632 0.058818 0.446744 1.332643
2011-02-21 17:50:21 51°14.231 2°53.697 6.8638 0.054137 0.408849 1.576412
2011-02-21 17:51:22 51°14.257 2°53.75 6.9997 0.050704 0.380917 1.541588
2011-02-21 17:52:21 51°14.277 2°53.786 7.0852 0.047791 0.357247 1.47194
2011-02-21 17:53:22 51°14.293 2°53.806 7.2452 0.045503 0.338569 1.123699
2011-02-21 17:54:21 51°14.306 2°53.815 7.391 0.043526 0.322423 1.47194
2011-02-21 17:55:21 51°14.315 2°53.817 7.535 0.041966 0.309598 1.367467
2011-02-21 17:56:21 51°14.323 2°53.813 7.6065 0.040614 0.298444 1.158523
2011-02-21 17:57:22 51°14.33 2°53.805 7.7479 0.03947 0.288941 0.879931
2011-02-21 17:58:21 51°14.34 2°53.799 7.834 0.038429 0.280302 0.70581
2011-02-21 17:59:21 51°14.353 2°53.798 7.9512 0.037493 0.272499 0.670986
2011-02-21 18:00:22 51°14.363 2°53.793 8.1167 0.036557 0.26476 0.636162
2011-02-21 18:01:21 51°14.371 2°53.784 8.2629 0.035829 0.258619 0.636162
2011-02-21 18:02:22 51°14.38 2°53.775 8.3158 0.035101 0.252536 0.670986
2011-02-21 18:03:22 51°14.391 2°53.77 8.4739 0.034581 0.248032 0.496866
2011-02-21 18:04:22 51°14.404 2°53.781 8.5891 0.034061 0.243555 0.35757
2011-02-21 18:05:21 51°14.434 2°53.855 8.7673 0.033749 0.240631 0.601338
2011-02-21 18:06:21 51°14.486 2°53.983 8.8751 0.033333 0.236982 0.566514
2011-02-21 18:07:22 51°14.553 2°54.158 9.0075 0.033125 0.234897 0.287922
2011-02-21 18:08:21 51°14.62 2°54.369 9.1272 0.032813 0.232038 0.218274
2011-02-21 18:09:21 51°14.648 2°54.607 9.1888 0.032605 0.229963 0.287922
2011-02-21 18:10:22 51°14.592 2°54.848 9.2357 0.032397 0.227888 0.984403
2011-02-21 18:11:21 51°14.478 2°55.04 9.3226 0.032189 0.225896 0.601338
2011-02-21 18:12:21 51°14.342 2°55.202 9.3653 0.031981 0.223893 0.845107
2011-02-21 18:13:23 51°14.201 2°55.352 9.3863 0.031877 0.222668 0.35757
2011-02-21 18:14:25 51°14.069 2°55.452 9.5196 0.031669 0.220737 0.253098
2011-02-21 18:15:25 51°13.959 2°55.528 9.6304 0.031461 0.218858 0.287922
2011-02-21 18:16:25 51°13.868 2°55.592 9.7184 0.031357 0.21772 0.392394
2011-02-21 18:17:23 51°13.793 2°55.657 9.8359 0.031253 0.216578 0.287922
2011-02-21 18:18:24 51°13.734 2°55.75 9.9203 0.031045 0.214718 0.253098
2011-02-21 18:19:25 51°13.692 2°55.842 10.0337 0.030941 0.213605 0.287922
2011-02-21 18:20:25 51°13.671 2°55.922 10.1492 0.030836 0.212496 0.322746
2011-02-21 18:21:25 51°13.662 2°55.959 10.1862 0.030628 0.210647 0.218274